Time;durP1;ratioP1;P1;durP2;ratioP2;P2;SDS_P1;SDS_P2;PMS_P1;PMS_P2;Temp;Humidity;BMP_temperature;BMP_pressure;BME280_temperature;BME280_humidity;BME280_pressure;Samples;Min_cycle;Max_cycle;Signal;HPM_P1;HPM_P2
2020/12/09 00:00:04;;;;;;;1.58;0.80;;;10.20;96.70;;;;;;4997469;28;20145;-86
2020/12/09 00:02:33;;;;;;;2.28;0.73;;;10.20;96.70;;;;;;4999767;28;20076;-86
2020/12/09 00:05:08;;;;;;;2.90;0.98;;;10.20;96.70;;;;;;4985790;28;20046;-86
2020/12/09 00:07:38;;;;;;;1.73;0.90;;;10.20;96.70;;;;;;4980687;28;20054;-85
2020/12/09 00:10:07;;;;;;;2.00;0.70;;;10.20;96.70;;;;;;4998502;28;20137;-86
2020/12/09 00:12:35;;;;;;;1.92;0.70;;;10.20;96.70;;;;;;4996662;28;20037;-86
2020/12/09 00:15:05;;;;;;;2.45;0.80;;;10.20;96.70;;;;;;4998790;28;20065;-86
2020/12/09 00:17:33;;;;;;;0.93;0.60;;;10.20;96.70;;;;;;5002823;28;20423;-85
2020/12/09 00:20:00;;;;;;;0.90;0.55;;;10.20;96.70;;;;;;5003044;28;20416;-86
2020/12/09 00:22:27;;;;;;;1.15;0.50;;;10.20;96.70;;;;;;5003262;28;20120;-85
2020/12/09 00:24:54;;;;;;;1.85;0.80;;;10.20;96.70;;;;;;4996776;28;20053;-85
2020/12/09 00:27:21;;;;;;;1.27;0.50;;;10.10;96.70;;;;;;5019819;28;20073;-86
2020/12/09 00:29:48;;;;;;;2.00;0.60;;;10.10;96.70;;;;;;4987379;28;20531;-85
2020/12/09 00:32:17;;;;;;;1.33;0.60;;;10.10;96.70;;;;;;4999265;28;20416;-86
2020/12/09 00:34:44;;;;;;;1.58;0.70;;;10.10;96.70;;;;;;4987560;28;20038;-85
2020/12/09 00:37:11;;;;;;;2.22;0.77;;;10.10;96.70;;;;;;5000414;28;20049;-86
2020/12/09 00:39:38;;;;;;;1.35;0.60;;;10.00;96.70;;;;;;5002803;28;20120;-86
2020/12/09 00:42:05;;;;;;;2.15;0.90;;;10.00;96.70;;;;;;5004059;28;20070;-85
2020/12/09 00:44:32;;;;;;;1.10;0.70;;;10.00;96.70;;;;;;5005052;28;20045;-85
2020/12/09 00:47:00;;;;;;;1.48;0.47;;;10.00;96.70;;;;;;4998883;28;20125;-86
2020/12/09 00:49:32;;;;;;;2.45;0.45;;;10.00;96.70;;;;;;5005095;28;20041;-86
2020/12/09 00:52:02;;;;;;;2.97;0.63;;;10.00;96.70;;;;;;5003369;28;20100;-85
2020/12/09 00:54:29;;;;;;;1.55;0.70;;;10.00;96.70;;;;;;5002622;28;20084;-86
2020/12/09 00:56:56;;;;;;;1.05;0.60;;;10.00;96.70;;;;;;5003549;28;20038;-86
2020/12/09 00:59:24;;;;;;;1.17;0.50;;;10.00;96.70;;;;;;5004917;28;20052;-85
2020/12/09 01:01:51;;;;;;;1.17;0.50;;;10.00;96.70;;;;;;4985369;28;20049;-85
2020/12/09 01:04:21;;;;;;;2.67;0.73;;;10.00;96.70;;;;;;4998717;28;20046;-86
2020/12/09 01:06:50;;;;;;;1.23;0.55;;;10.00;96.70;;;;;;4999522;28;20037;-85
2020/12/09 01:09:19;;;;;;;1.25;0.65;;;9.90;96.70;;;;;;4987235;28;20571;-86
2020/12/09 01:11:48;;;;;;;1.80;0.90;;;10.00;96.70;;;;;;5002301;28;20358;-86
2020/12/09 01:14:15;;;;;;;1.02;0.50;;;10.00;96.70;;;;;;5000397;28;20521;-87
2020/12/09 01:16:42;;;;;;;1.33;0.50;;;9.90;96.70;;;;;;5023295;28;20045;-86
2020/12/09 01:19:09;;;;;;;1.60;0.60;;;9.90;96.70;;;;;;4998877;28;20428;-87
2020/12/09 01:21:37;;;;;;;0.98;0.38;;;9.90;96.70;;;;;;5003667;28;20044;-86
2020/12/09 01:24:05;;;;;;;1.35;0.50;;;9.80;96.70;;;;;;5002567;28;20080;-86
2020/12/09 01:26:32;;;;;;;1.20;0.40;;;9.80;96.70;;;;;;4998937;28;20064;-86
2020/12/09 01:28:59;;;;;;;1.55;0.47;;;9.80;96.70;;;;;;4985680;28;20046;-86
2020/12/09 01:31:26;;;;;;;0.82;0.50;;;9.80;96.70;;;;;;4998919;28;20132;-85
2020/12/09 01:33:53;;;;;;;0.43;0.20;;;9.70;96.70;;;;;;5003423;28;20038;-86
2020/12/09 01:36:21;;;;;;;1.05;0.32;;;9.70;96.70;;;;;;5001454;28;20049;-86
2020/12/09 01:38:49;;;;;;;0.30;0.20;;;9.70;96.70;;;;;;4997905;28;20132;-86
2020/12/09 01:41:18;;;;;;;2.03;0.30;;;9.60;96.70;;;;;;5005582;28;20080;-86
2020/12/09 01:43:45;;;;;;;1.30;0.30;;;9.60;96.70;;;;;;4983673;28;20447;-87
2020/12/09 01:46:14;;;;;;;0.50;0.22;;;9.60;96.70;;;;;;5000973;28;20049;-86
2020/12/09 01:48:43;;;;;;;0.52;0.20;;;9.60;96.70;;;;;;4986129;28;20046;-86
2020/12/09 01:51:11;;;;;;;0.40;0.10;;;9.50;96.70;;;;;;5001203;28;20216;-85
2020/12/09 01:53:38;;;;;;;1.23;0.20;;;9.50;96.70;;;;;;5001820;28;20049;-86
2020/12/09 01:56:06;;;;;;;0.73;0.30;;;9.50;96.70;;;;;;5001546;28;20030;-86
2020/12/09 01:58:33;;;;;;;0.30;0.20;;;9.50;96.70;;;;;;4984272;28;20391;-85
2020/12/09 02:01:01;;;;;;;0.85;0.30;;;9.50;96.70;;;;;;5001805;28;20046;-86
2020/12/09 02:03:28;;;;;;;0.85;0.30;;;9.60;96.70;;;;;;5001755;28;20041;-86
2020/12/09 02:05:57;;;;;;;0.77;0.30;;;9.60;96.70;;;;;;4984960;28;20055;-87
2020/12/09 02:08:25;;;;;;;1.17;0.30;;;9.60;96.70;;;;;;4982777;28;20049;-86
2020/12/09 02:10:56;;;;;;;0.43;0.20;;;9.50;96.70;;;;;;5002365;28;20087;-86
2020/12/09 02:13:23;;;;;;;0.47;0.20;;;9.50;96.70;;;;;;5002745;28;20129;-86
2020/12/09 02:15:51;;;;;;;0.50;0.30;;;9.60;96.70;;;;;;5004471;28;20033;-86
2020/12/09 02:18:19;;;;;;;1.08;0.30;;;9.50;96.70;;;;;;5001616;28;20488;-87
2020/12/09 02:20:46;;;;;;;1.55;0.32;;;9.50;96.70;;;;;;5034327;28;20080;-87
2020/12/09 02:23:14;;;;;;;0.88;0.40;;;9.50;96.70;;;;;;5001530;28;20030;-87
2020/12/09 02:25:41;;;;;;;0.60;0.30;;;9.50;96.70;;;;;;5002165;28;20038;-86
2020/12/09 02:28:10;;;;;;;0.73;0.38;;;9.40;96.70;;;;;;5001111;28;20112;-86
2020/12/09 02:30:37;;;;;;;0.75;0.13;;;9.40;96.70;;;;;;5000016;28;20041;-86
2020/12/09 02:33:04;;;;;;;0.68;0.20;;;9.40;96.70;;;;;;4983986;28;20125;-86
2020/12/09 02:35:31;;;;;;;0.40;0.17;;;9.30;96.70;;;;;;5001917;28;20038;-87
2020/12/09 02:37:58;;;;;;;0.20;0.10;;;9.30;96.70;;;;;;5001208;28;20038;-87
2020/12/09 02:40:26;;;;;;;0.68;0.10;;;9.30;96.70;;;;;;5002372;28;20116;-87
2020/12/09 02:42:53;;;;;;;1.52;0.10;;;9.30;96.70;;;;;;5002112;28;20061;-87
2020/12/09 02:45:21;;;;;;;0.40;0.10;;;9.30;96.70;;;;;;4984531;28;20042;-87
2020/12/09 02:47:48;;;;;;;0.32;0.20;;;9.30;96.70;;;;;;5017375;28;20146;-87
2020/12/09 02:50:15;;;;;;;0.32;0.20;;;9.30;96.70;;;;;;4986542;28;20586;-87
2020/12/09 02:52:42;;;;;;;0.82;0.10;;;9.30;96.70;;;;;;5002634;28;20042;-87
2020/12/09 02:55:09;;;;;;;0.20;0.10;;;9.30;96.70;;;;;;5001456;28;20038;-87
2020/12/09 02:57:37;;;;;;;0.50;0.20;;;9.30;96.70;;;;;;5001740;28;20061;-86
2020/12/09 03:00:05;;;;;;;0.30;0.10;;;9.40;96.70;;;;;;4985993;28;20042;-87
2020/12/09 03:02:32;;;;;;;0.50;0.10;;;9.40;96.70;;;;;;5018020;28;20053;-87
2020/12/09 03:05:00;;;;;;;1.42;0.17;;;9.50;96.70;;;;;;5003207;28;20037;-87
2020/12/09 03:07:27;;;;;;;0.52;0.20;;;9.50;96.70;;;;;;4999477;28;20104;-87
2020/12/09 03:09:54;;;;;;;0.47;0.10;;;9.40;96.70;;;;;;4985927;28;20222;-87
2020/12/09 03:12:21;;;;;;;0.47;0.20;;;9.40;96.70;;;;;;5002113;28;20057;-87
2020/12/09 03:14:49;;;;;;;1.17;0.10;;;9.30;96.70;;;;;;5000802;28;21843;-87
2020/12/09 03:17:17;;;;;;;0.08;0.08;;;9.40;96.70;;;;;;4997161;28;20613;-87
2020/12/09 03:19:44;;;;;;;0.30;0.10;;;9.40;96.70;;;;;;5001757;28;20100;-87
2020/12/09 03:22:11;;;;;;;0.30;0.15;;;9.40;96.70;;;;;;5001514;28;20129;-87
2020/12/09 03:24:38;;;;;;;0.80;0.50;;;9.40;96.70;;;;;;4987733;28;20526;-87
2020/12/09 03:27:06;;;;;;;0.00;0.00;;;9.30;96.70;;;;;;4987383;28;20052;-87
2020/12/09 03:29:33;;;;;;;0.52;0.20;;;9.20;96.70;;;;;;5003697;28;20045;-87
2020/12/09 03:32:01;;;;;;;2.45;0.47;;;9.10;96.70;;;;;;4997999;28;20045;-86
2020/12/09 03:34:28;;;;;;;0.88;0.30;;;9.10;96.70;;;;;;5002761;28;20052;-87
2020/12/09 03:36:56;;;;;;;0.55;0.22;;;9.10;96.70;;;;;;4999204;28;20041;-88
2020/12/09 03:39:23;;;;;;;0.20;0.20;;;9.20;96.70;;;;;;4985848;28;20038;-87
2020/12/09 03:41:50;;;;;;;0.50;0.30;;;9.10;96.70;;;;;;5001502;28;20126;-87
2020/12/09 03:44:18;;;;;;;1.00;0.10;;;9.10;96.70;;;;;;5003281;28;20041;-88
2020/12/09 03:46:45;;;;;;;0.40;0.17;;;9.10;96.70;;;;;;5000425;28;20091;-87
2020/12/09 03:49:13;;;;;;;0.68;0.17;;;9.20;96.70;;;;;;5000254;28;20048;-86
2020/12/09 03:51:40;;;;;;;0.63;0.28;;;9.20;96.70;;;;;;5003598;28;20034;-86
2020/12/09 03:54:07;;;;;;;1.20;0.20;;;9.20;96.70;;;;;;4996389;28;20038;-86
2020/12/09 03:56:35;;;;;;;0.95;0.30;;;9.20;96.70;;;;;;5001632;28;20061;-87
2020/12/09 03:59:02;;;;;;;1.65;0.20;;;9.30;96.70;;;;;;4986283;28;20046;-87
2020/12/09 04:01:29;;;;;;;1.52;0.30;;;9.20;96.70;;;;;;5005066;28;20550;-86
2020/12/09 04:03:56;;;;;;;1.05;0.40;;;9.20;96.70;;;;;;5005388;28;20034;-87
2020/12/09 04:06:24;;;;;;;1.15;0.28;;;9.20;96.70;;;;;;5022210;28;20092;-85
2020/12/09 04:08:51;;;;;;;0.40;0.20;;;9.20;96.70;;;;;;5005359;28;20045;-87
2020/12/09 04:11:19;;;;;;;1.05;0.30;;;9.20;96.70;;;;;;5016540;28;20050;-86
2020/12/09 04:13:46;;;;;;;0.70;0.30;;;9.30;96.70;;;;;;5005445;28;20038;-86
2020/12/09 04:16:14;;;;;;;0.98;0.40;;;9.40;96.70;;;;;;5006356;28;20077;-85
2020/12/09 04:18:42;;;;;;;0.82;0.20;;;9.40;96.70;;;;;;5003755;28;20077;-86
2020/12/09 04:21:09;;;;;;;0.77;0.30;;;9.40;96.70;;;;;;4986125;28;20108;-86
2020/12/09 04:23:37;;;;;;;0.90;0.20;;;9.40;96.70;;;;;;5004983;28;20034;-85
2020/12/09 04:26:05;;;;;;;1.08;0.50;;;9.30;96.70;;;;;;5003494;28;20033;-85
2020/12/09 04:28:32;;;;;;;2.47;0.20;;;9.30;96.70;;;;;;5001788;28;20092;-86
2020/12/09 04:30:59;;;;;;;0.60;0.20;;;9.40;96.70;;;;;;5004700;28;20447;-86
2020/12/09 04:33:27;;;;;;;0.50;0.20;;;9.30;96.70;;;;;;5004893;28;20054;-86
2020/12/09 04:35:55;;;;;;;0.17;0.13;;;9.30;96.70;;;;;;4985262;28;20049;-86
2020/12/09 04:38:22;;;;;;;0.90;0.30;;;9.30;96.70;;;;;;5001897;28;20128;-86
2020/12/09 04:40:51;;;;;;;0.32;0.28;;;9.30;96.70;;;;;;5001660;28;20046;-86
2020/12/09 04:43:18;;;;;;;0.40;0.20;;;9.40;96.70;;;;;;5003079;28;20053;-85
2020/12/09 04:45:46;;;;;;;0.65;0.20;;;9.40;96.70;;;;;;5006743;28;20046;-86
2020/12/09 04:48:14;;;;;;;0.50;0.30;;;9.40;96.70;;;;;;5003619;28;20042;-85
2020/12/09 04:51:06;;;;;;;0.80;0.45;;;9.40;96.70;;;;;;5000128;28;20046;-86
2020/12/09 04:53:33;;;;;;;1.48;0.38;;;9.40;96.70;;;;;;5003801;28;20334;-87
2020/12/09 04:56:01;;;;;;;0.60;0.30;;;9.30;96.70;;;;;;5004460;28;20070;-85
2020/12/09 04:58:38;;;;;;;1.45;0.60;;;9.30;96.70;;;;;;5004119;28;20092;-86
2020/12/09 05:01:07;;;;;;;2.30;0.90;;;9.30;96.70;;;;;;5002920;28;20037;-86
2020/12/09 05:03:41;;;;;;;1.05;0.60;;;9.30;96.70;;;;;;4985121;28;20165;-86
2020/12/09 05:06:10;;;;;;;2.55;1.20;;;9.30;96.70;;;;;;5001518;28;20140;-86
2020/12/09 05:08:42;;;;;;;4.28;1.10;;;9.30;96.70;;;;;;5004554;28;20045;-86
2020/12/09 05:11:12;;;;;;;3.25;0.95;;;9.20;96.70;;;;;;4999169;28;20073;-86
2020/12/09 05:13:42;;;;;;;3.47;1.20;;;9.20;96.70;;;;;;5002930;28;20147;-86
2020/12/09 05:16:16;;;;;;;1.48;0.90;;;9.20;96.70;;;;;;5003636;28;20049;-86
2020/12/09 05:18:44;;;;;;;1.67;0.80;;;9.20;96.70;;;;;;5002482;28;20066;-86
2020/12/09 05:21:14;;;;;;;1.45;0.80;;;9.20;96.70;;;;;;4981687;28;20133;-85
2020/12/09 05:23:45;;;;;;;1.52;0.70;;;9.20;96.70;;;;;;5004933;28;20042;-86
2020/12/09 05:26:18;;;;;;;3.20;0.90;;;9.20;96.70;;;;;;5002181;28;20038;-86
2020/12/09 05:28:46;;;;;;;0.90;0.60;;;9.20;96.70;;;;;;5003178;28;20045;-86
2020/12/09 05:31:21;;;;;;;1.55;0.68;;;9.20;96.70;;;;;;5006065;28;20044;-86
2020/12/09 05:33:49;;;;;;;1.15;0.65;;;9.20;96.70;;;;;;5004611;28;20062;-86
2020/12/09 05:36:16;;;;;;;1.70;0.80;;;9.20;96.70;;;;;;4989253;28;20488;-86
2020/12/09 05:38:43;;;;;;;2.03;0.60;;;9.30;96.70;;;;;;5003467;28;20045;-86
2020/12/09 05:41:11;;;;;;;2.08;0.75;;;9.20;96.70;;;;;;4985095;28;20048;-86
2020/12/09 05:43:43;;;;;;;1.33;0.70;;;9.20;96.70;;;;;;5005122;28;20421;-86
2020/12/09 05:46:10;;;;;;;0.70;0.43;;;9.20;96.70;;;;;;5002148;28;20054;-86
2020/12/09 05:48:38;;;;;;;1.33;0.70;;;9.20;96.70;;;;;;4986957;28;20037;-85
2020/12/09 05:51:06;;;;;;;1.40;0.60;;;9.20;96.70;;;;;;5001941;28;20040;-87
2020/12/09 05:53:35;;;;;;;1.02;0.60;;;9.20;96.70;;;;;;5006046;28;20298;-87
2020/12/09 05:56:11;;;;;;;0.70;0.52;;;9.20;96.70;;;;;;4986092;28;20140;-88
2020/12/09 05:58:40;;;;;;;2.33;0.60;;;9.20;96.70;;;;;;4986618;28;20069;-88
2020/12/09 06:01:10;;;;;;;0.82;0.40;;;9.20;96.70;;;;;;5002467;28;20041;-88
2020/12/09 06:03:38;;;;;;;1.17;0.70;;;9.20;96.70;;;;;;5004202;28;20034;-88
2020/12/09 06:06:08;;;;;;;1.15;0.57;;;9.20;96.70;;;;;;5004430;28;20042;-87
2020/12/09 06:08:38;;;;;;;2.30;0.90;;;9.20;96.70;;;;;;4999815;28;20037;-88
2020/12/09 06:11:06;;;;;;;1.63;1.10;;;9.20;96.70;;;;;;5000789;28;20100;-88
2020/12/09 06:13:33;;;;;;;2.67;1.10;;;9.20;96.70;;;;;;5003456;28;20041;-88
2020/12/09 06:16:02;;;;;;;1.98;0.98;;;9.20;96.70;;;;;;5000082;28;20145;-87
2020/12/09 06:18:31;;;;;;;1.67;1.30;;;9.20;96.70;;;;;;5002628;28;20492;-87
2020/12/09 06:20:59;;;;;;;1.67;0.80;;;9.20;96.70;;;;;;5002214;28;20052;-88
2020/12/09 06:23:27;;;;;;;1.50;0.85;;;9.20;96.70;;;;;;4991588;28;20382;-88
2020/12/09 06:25:56;;;;;;;2.83;1.05;;;9.20;96.70;;;;;;5003593;28;20543;-88
2020/12/09 06:28:25;;;;;;;1.55;0.98;;;9.20;96.70;;;;;;5000357;28;20045;-87
2020/12/09 06:30:54;;;;;;;1.30;0.70;;;9.20;96.70;;;;;;4998350;28;20094;-87
2020/12/09 06:33:32;;;;;;;1.00;0.73;;;9.20;96.70;;;;;;5001694;28;20093;-88
2020/12/09 06:36:16;;;;;;;0.80;0.60;;;9.20;96.70;;;;;;5002133;28;20038;-88
2020/12/09 06:39:14;;;;;;;0.90;0.70;;;9.20;96.70;;;;;;5001854;28;20038;-88
2020/12/09 06:41:57;;;;;;;2.15;0.57;;;9.20;96.70;;;;;;5001903;28;20042;-88
2020/12/09 06:44:29;;;;;;;1.15;0.70;;;9.30;96.70;;;;;;5001793;28;20112;-87
2020/12/09 06:46:57;;;;;;;2.05;0.70;;;9.30;96.70;;;;;;5002287;28;20045;-87
2020/12/09 06:49:41;;;;;;;0.70;0.43;;;9.20;96.70;;;;;;4985826;28;20046;-87
2020/12/09 06:52:26;;;;;;;1.17;0.77;;;9.30;96.70;;;;;;4980483;28;20515;-88
2020/12/09 06:54:57;;;;;;;0.73;0.50;;;9.30;96.70;;;;;;5002101;28;20072;-87
2020/12/09 06:57:27;;;;;;;0.57;0.40;;;9.30;96.70;;;;;;5000260;28;20049;-83
2020/12/09 07:00:15;;;;;;;1.13;0.73;;;9.20;96.70;;;;;;5001354;28;20100;-82
2020/12/09 07:02:44;;;;;;;1.70;0.77;;;9.30;96.70;;;;;;5002666;28;20525;-88
2020/12/09 07:05:15;;;;;;;1.05;0.50;;;9.30;96.70;;;;;;5003268;28;20192;-87
2020/12/09 07:07:44;;;;;;;0.90;0.47;;;9.30;96.70;;;;;;5017897;28;20070;-89
2020/12/09 07:10:21;;;;;;;1.48;0.60;;;9.30;96.70;;;;;;4999055;28;20038;-86
2020/12/09 07:12:58;;;;;;;0.82;0.68;;;9.30;96.70;;;;;;5003543;28;20034;-86
2020/12/09 07:15:25;;;;;;;2.28;0.60;;;9.30;96.70;;;;;;5003062;28;20080;-86
2020/12/09 07:17:53;;;;;;;1.10;0.63;;;9.30;96.70;;;;;;4988459;28;20045;-87
2020/12/09 07:20:21;;;;;;;2.10;0.70;;;9.30;96.70;;;;;;4997434;28;20456;-87
2020/12/09 07:22:49;;;;;;;4.47;0.85;;;9.30;96.70;;;;;;4998170;28;20574;-87
2020/12/09 07:25:16;;;;;;;1.35;1.02;;;9.30;96.70;;;;;;5000445;28;20041;-87
2020/12/09 07:27:44;;;;;;;1.83;1.17;;;9.40;96.70;;;;;;4983900;28;20341;-87
2020/12/09 07:30:14;;;;;;;1.85;1.13;;;9.40;96.70;;;;;;5016068;28;20044;-87
2020/12/09 07:32:41;;;;;;;2.40;1.30;;;9.30;96.70;;;;;;4982638;28;20042;-87
2020/12/09 07:35:09;;;;;;;1.48;0.90;;;9.40;96.70;;;;;;5001484;28;20119;-87
2020/12/09 07:37:40;;;;;;;1.65;1.15;;;9.40;96.70;;;;;;4985382;28;20034;-87
2020/12/09 07:40:13;;;;;;;1.20;0.80;;;9.40;96.70;;;;;;5019890;28;20045;-87
2020/12/09 07:42:40;;;;;;;1.52;0.57;;;9.40;96.70;;;;;;5001156;28;20073;-87
2020/12/09 07:45:12;;;;;;;0.77;0.50;;;9.40;96.70;;;;;;5000120;28;20431;-87
2020/12/09 07:47:39;;;;;;;1.05;0.75;;;9.40;96.70;;;;;;5002549;28;20081;-87
2020/12/09 07:50:07;;;;;;;3.03;0.50;;;9.40;96.70;;;;;;4993524;28;20884;-87
2020/12/09 07:52:36;;;;;;;2.50;0.50;;;9.40;96.70;;;;;;4985159;28;20050;-87
2020/12/09 07:55:08;;;;;;;1.30;0.70;;;9.40;96.70;;;;;;5008384;28;20138;-87
2020/12/09 07:57:36;;;;;;;1.13;0.57;;;9.40;96.70;;;;;;5000606;28;20050;-87
2020/12/09 08:00:08;;;;;;;0.88;0.50;;;9.40;96.70;;;;;;4999547;28;20042;-87
2020/12/09 08:02:39;;;;;;;1.77;0.60;;;9.50;96.70;;;;;;5001373;28;20533;-87
2020/12/09 08:05:17;;;;;;;1.05;0.55;;;9.50;96.70;;;;;;4997360;28;20659;-87
2020/12/09 08:07:48;;;;;;;1.75;0.50;;;9.50;96.70;;;;;;5016666;28;20065;-87
2020/12/09 08:10:24;;;;;;;0.90;0.40;;;9.60;96.70;;;;;;4998671;28;20046;-87
2020/12/09 08:13:00;;;;;;;0.50;0.40;;;9.60;96.70;;;;;;5000404;28;20038;-87
2020/12/09 08:15:27;;;;;;;1.45;0.43;;;9.70;96.70;;;;;;4983648;28;20041;-87
2020/12/09 08:17:57;;;;;;;1.15;0.73;;;9.70;96.70;;;;;;4984330;28;20146;-87
2020/12/09 08:20:24;;;;;;;0.60;0.40;;;9.80;96.70;;;;;;4982003;28;20065;-87
2020/12/09 08:22:53;;;;;;;1.35;0.30;;;9.90;96.70;;;;;;4999466;28;21386;-87
2020/12/09 08:25:22;;;;;;;1.70;0.50;;;9.90;96.70;;;;;;4999949;28;20488;-87
2020/12/09 08:27:50;;;;;;;1.55;0.40;;;10.00;96.70;;;;;;4999715;28;20511;-87
2020/12/09 08:30:19;;;;;;;0.50;0.40;;;10.00;96.70;;;;;;4999001;28;20037;-87
2020/12/09 08:33:04;;;;;;;1.65;0.60;;;10.10;96.70;;;;;;4984444;28;20504;-87
2020/12/09 08:35:42;;;;;;;1.83;0.60;;;10.20;96.70;;;;;;4999569;28;20054;-87
2020/12/09 08:38:10;;;;;;;0.88;0.50;;;10.20;96.70;;;;;;5016372;28;20046;-87
2020/12/09 08:40:38;;;;;;;1.20;0.50;;;10.20;96.70;;;;;;4987204;28;20050;-86
2020/12/09 08:43:06;;;;;;;1.80;0.70;;;10.30;96.70;;;;;;5005151;28;20375;-86
2020/12/09 08:45:33;;;;;;;1.33;0.65;;;10.20;96.70;;;;;;5003736;28;20093;-87
2020/12/09 08:48:00;;;;;;;3.00;0.60;;;10.20;96.70;;;;;;5003325;28;20038;-88
2020/12/09 08:50:27;;;;;;;1.27;0.70;;;10.20;96.70;;;;;;5004513;28;20069;-87
2020/12/09 08:52:54;;;;;;;1.48;0.77;;;10.20;96.70;;;;;;4988624;28;20148;-87
2020/12/09 08:55:21;;;;;;;3.00;0.77;;;10.20;96.70;;;;;;5003920;28;20092;-87
2020/12/09 08:57:49;;;;;;;1.40;0.50;;;10.10;96.70;;;;;;5003470;28;20070;-89
2020/12/09 09:00:16;;;;;;;0.95;0.55;;;10.10;96.70;;;;;;5003464;28;20044;-88
2020/12/09 09:02:44;;;;;;;3.65;0.73;;;10.20;96.70;;;;;;5003311;28;20049;-88
2020/12/09 09:05:11;;;;;;;1.63;0.73;;;10.10;96.70;;;;;;5006078;28;20041;-87
2020/12/09 09:07:38;;;;;;;0.82;0.60;;;10.10;96.70;;;;;;5003489;28;20049;-88
2020/12/09 09:10:06;;;;;;;1.38;0.60;;;10.20;96.70;;;;;;5003976;28;20084;-88
2020/12/09 09:12:33;;;;;;;1.77;0.55;;;10.20;96.70;;;;;;5004201;28;20515;-88
2020/12/09 09:15:02;;;;;;;1.05;0.60;;;10.20;96.70;;;;;;5005178;28;20042;-88
2020/12/09 09:17:29;;;;;;;0.95;0.60;;;10.20;96.70;;;;;;5004132;28;20041;-89
2020/12/09 09:20:01;;;;;;;2.15;0.90;;;10.30;96.70;;;;;;5017355;28;20077;-90
2020/12/09 09:22:28;;;;;;;2.95;0.82;;;10.30;96.70;;;;;;4999043;28;20509;-89
2020/12/09 09:24:55;;;;;;;1.80;0.80;;;10.30;96.70;;;;;;5003977;28;21092;-88
2020/12/09 09:27:23;;;;;;;1.50;0.70;;;10.30;96.70;;;;;;4986722;28;20034;-88
2020/12/09 09:29:50;;;;;;;1.20;0.60;;;10.30;96.70;;;;;;5004549;28;20044;-88
2020/12/09 09:32:18;;;;;;;0.80;0.60;;;10.30;96.70;;;;;;5017070;28;20042;-89
2020/12/09 09:34:45;;;;;;;1.15;0.40;;;10.30;96.70;;;;;;5001418;28;20046;-87
2020/12/09 09:37:13;;;;;;;1.10;0.75;;;10.40;96.70;;;;;;5003215;28;20030;-89
2020/12/09 09:39:40;;;;;;;1.20;0.50;;;10.40;96.70;;;;;;4980909;28;20427;-88
2020/12/09 09:42:07;;;;;;;1.70;0.47;;;10.40;96.70;;;;;;5002617;28;20161;-87
2020/12/09 09:44:34;;;;;;;1.83;0.40;;;10.40;96.70;;;;;;5002935;28;20057;-88
2020/12/09 09:47:01;;;;;;;0.50;0.35;;;10.30;96.70;;;;;;5003815;28;20034;-88
2020/12/09 09:49:29;;;;;;;1.42;0.30;;;10.30;96.70;;;;;;5002245;28;20046;-88
2020/12/09 09:51:56;;;;;;;0.50;0.30;;;10.30;96.70;;;;;;5002377;28;20179;-89
2020/12/09 09:54:23;;;;;;;0.35;0.30;;;10.30;96.70;;;;;;5003105;28;20125;-88
2020/12/09 09:56:50;;;;;;;0.68;0.50;;;10.20;96.70;;;;;;5002151;28;20042;-89
2020/12/09 09:59:18;;;;;;;1.48;0.50;;;10.30;96.70;;;;;;4987772;28;20042;-88
2020/12/09 10:01:45;;;;;;;1.65;0.50;;;10.40;96.70;;;;;;4986944;28;20069;-88
2020/12/09 10:04:12;;;;;;;0.82;0.60;;;10.40;96.70;;;;;;5003717;28;20104;-89
2020/12/09 10:06:40;;;;;;;4.10;1.02;;;10.40;96.70;;;;;;4987787;28;20056;-88
2020/12/09 10:09:07;;;;;;;1.08;0.65;;;10.40;96.70;;;;;;5017046;28;20538;-87
2020/12/09 10:11:36;;;;;;;1.60;1.10;;;10.40;96.70;;;;;;4986832;28;20030;-87
2020/12/09 10:14:04;;;;;;;2.30;1.05;;;10.50;96.70;;;;;;5002609;28;20066;-87
2020/12/09 10:16:31;;;;;;;2.17;0.90;;;10.50;96.70;;;;;;4986390;28;20034;-86
2020/12/09 10:18:59;;;;;;;1.38;0.80;;;10.40;96.70;;;;;;4985764;28;20504;-87
2020/12/09 10:21:28;;;;;;;1.30;0.60;;;10.40;96.70;;;;;;5002499;28;20112;-87
2020/12/09 10:23:57;;;;;;;1.20;0.50;;;10.30;96.70;;;;;;4998949;28;20482;-87
2020/12/09 10:26:28;;;;;;;1.23;0.50;;;10.20;96.70;;;;;;5018582;28;20042;-86
2020/12/09 10:28:56;;;;;;;0.90;0.50;;;10.20;96.70;;;;;;5002032;28;20406;-89
2020/12/09 10:31:23;;;;;;;3.50;0.63;;;10.10;96.70;;;;;;5003468;28;20093;-88
2020/12/09 10:33:50;;;;;;;1.35;0.70;;;10.00;96.70;;;;;;5001098;28;20030;-88
2020/12/09 10:36:22;;;;;;;3.05;0.88;;;9.90;96.70;;;;;;5002510;28;20041;-88
2020/12/09 10:38:50;;;;;;;1.45;0.90;;;9.90;96.70;;;;;;4979899;28;20542;-88
2020/12/09 10:41:18;;;;;;;1.10;0.70;;;9.90;96.70;;;;;;5001014;28;20049;-89
2020/12/09 10:43:46;;;;;;;2.58;1.77;;;9.90;96.70;;;;;;5001994;28;20046;-89
2020/12/09 10:46:13;;;;;;;2.08;1.73;;;9.90;96.70;;;;;;5002883;28;20038;-88
2020/12/09 10:48:40;;;;;;;4.18;1.30;;;9.90;96.70;;;;;;5001347;28;20050;-88
2020/12/09 10:51:08;;;;;;;1.42;1.20;;;9.90;96.70;;;;;;4985501;28;20042;-89
2020/12/09 10:53:35;;;;;;;3.33;1.52;;;9.90;96.70;;;;;;4987222;28;20048;-89
2020/12/09 10:56:02;;;;;;;2.35;2.00;;;9.90;96.70;;;;;;5003266;28;20049;-89
2020/12/09 10:58:31;;;;;;;2.97;2.22;;;9.90;96.70;;;;;;4984376;28;20048;-88
2020/12/09 11:00:58;;;;;;;5.13;3.55;;;9.90;96.70;;;;;;5002698;28;20411;-88
2020/12/09 11:03:25;;;;;;;3.60;2.97;;;10.00;96.70;;;;;;5001890;28;20046;-88
2020/12/09 11:05:53;;;;;;;4.38;3.20;;;9.90;96.70;;;;;;4982150;28;20103;-89
2020/12/09 11:08:20;;;;;;;3.70;2.28;;;9.90;96.70;;;;;;5000594;28;20038;-88
2020/12/09 11:10:47;;;;;;;3.13;2.65;;;10.00;96.70;;;;;;5001673;28;20080;-89
2020/12/09 11:13:14;;;;;;;2.17;1.55;;;10.00;96.70;;;;;;5001035;28;20049;-88
2020/12/09 11:15:42;;;;;;;2.17;1.27;;;10.00;96.70;;;;;;5001839;28;20038;-89
2020/12/09 11:18:10;;;;;;;2.05;1.20;;;10.00;96.70;;;;;;5002810;28;20102;-88
2020/12/09 11:20:38;;;;;;;3.85;1.63;;;10.10;96.70;;;;;;5002797;28;20104;-88
2020/12/09 11:23:10;;;;;;;2.88;1.70;;;10.10;96.70;;;;;;5001481;28;20038;-88
2020/12/09 11:25:37;;;;;;;2.60;1.63;;;10.10;96.70;;;;;;5001481;28;20041;-89
2020/12/09 11:28:04;;;;;;;5.22;1.50;;;10.20;96.70;;;;;;5001808;28;20038;-88
2020/12/09 11:30:32;;;;;;;2.55;1.20;;;10.20;96.70;;;;;;4984658;28;20042;-89
2020/12/09 11:33:00;;;;;;;2.40;1.25;;;10.30;96.70;;;;;;5001629;28;20053;-87
2020/12/09 11:35:27;;;;;;;2.25;1.30;;;10.40;96.70;;;;;;5001418;28;20042;-88
2020/12/09 11:37:56;;;;;;;2.47;1.88;;;10.50;96.70;;;;;;4985264;28;20042;-89
2020/12/09 11:40:25;;;;;;;3.78;2.42;;;10.50;96.70;;;;;;5002756;28;20068;-88
2020/12/09 11:42:52;;;;;;;5.20;2.50;;;10.60;96.70;;;;;;5002468;28;20320;-88
2020/12/09 11:45:19;;;;;;;2.38;1.17;;;10.60;96.70;;;;;;4980330;28;20037;-88
2020/12/09 11:47:46;;;;;;;2.53;1.10;;;10.60;96.70;;;;;;4996977;28;20037;-87
2020/12/09 11:50:15;;;;;;;2.03;1.35;;;10.70;96.70;;;;;;5000707;28;20042;-88
2020/12/09 11:52:42;;;;;;;2.88;1.70;;;10.70;96.70;;;;;;5015083;28;20120;-89
2020/12/09 11:55:11;;;;;;;3.80;2.03;;;10.70;96.70;;;;;;5001289;28;20046;-88
2020/12/09 11:57:39;;;;;;;3.45;2.22;;;10.80;96.70;;;;;;4985715;28;20043;-89
2020/12/09 12:00:06;;;;;;;2.15;1.60;;;10.80;96.70;;;;;;5000519;28;20119;-89
2020/12/09 12:02:33;;;;;;;2.92;1.80;;;10.70;96.70;;;;;;4986243;28;20046;-89
2020/12/09 12:05:02;;;;;;;3.65;2.80;;;10.70;96.70;;;;;;5000233;28;20147;-88
2020/12/09 12:07:30;;;;;;;2.45;2.00;;;10.70;96.70;;;;;;4998201;28;20194;-88
2020/12/09 12:09:57;;;;;;;2.83;1.80;;;10.60;96.70;;;;;;5001363;28;20041;-89
2020/12/09 12:12:24;;;;;;;5.68;2.70;;;10.50;96.70;;;;;;4986147;28;20041;-88
2020/12/09 12:14:51;;;;;;;3.08;2.13;;;10.50;96.70;;;;;;5005237;28;20038;-88
2020/12/09 12:17:18;;;;;;;2.80;2.22;;;10.50;96.70;;;;;;5006119;28;20045;-88
2020/12/09 12:19:45;;;;;;;2.53;1.30;;;10.50;96.70;;;;;;4986734;28;20135;-89
2020/12/09 12:22:12;;;;;;;2.70;0.95;;;10.50;96.70;;;;;;4989463;28;20038;-89
2020/12/09 12:24:40;;;;;;;1.80;1.10;;;10.50;96.70;;;;;;5004924;28;20038;-88
2020/12/09 12:27:08;;;;;;;1.08;0.65;;;10.50;96.70;;;;;;5005602;28;20126;-88
2020/12/09 12:29:35;;;;;;;1.20;0.80;;;10.50;96.70;;;;;;4995308;28;20053;-88
2020/12/09 12:32:02;;;;;;;1.52;1.02;;;10.40;96.70;;;;;;4989291;28;20121;-89
2020/12/09 12:34:29;;;;;;;2.13;1.20;;;10.50;96.70;;;;;;5006513;28;20048;-89
2020/12/09 12:36:57;;;;;;;2.53;1.63;;;10.50;96.70;;;;;;4988507;28;20065;-89
2020/12/09 12:39:25;;;;;;;2.90;2.20;;;10.50;96.70;;;;;;5004014;28;20108;-89
2020/12/09 12:41:53;;;;;;;5.63;2.72;;;10.40;96.70;;;;;;4993135;28;20037;-88
2020/12/09 12:44:20;;;;;;;4.03;2.50;;;10.50;96.70;;;;;;5000087;28;20053;-87
2020/12/09 12:46:47;;;;;;;3.80;2.60;;;10.50;96.70;;;;;;4989152;28;20041;-88
2020/12/09 12:49:15;;;;;;;2.65;1.83;;;10.60;96.70;;;;;;5002775;28;20056;-88
2020/12/09 12:51:43;;;;;;;3.75;2.00;;;10.60;96.70;;;;;;4989072;28;20099;-89
2020/12/09 12:54:10;;;;;;;3.13;1.77;;;10.70;96.70;;;;;;5005546;28;20294;-88
2020/12/09 12:56:37;;;;;;;2.28;1.50;;;10.80;96.70;;;;;;4989900;28;20139;-89
2020/12/09 12:59:05;;;;;;;1.40;1.20;;;10.80;96.70;;;;;;5003085;28;20058;-88